createdAt,value
2018-03-16T00:00:32.819Z,3.45
2018-03-16T00:01:13.366Z,3.44
2018-03-16T00:01:53.925Z,3.42
2018-03-16T00:02:34.480Z,3.55
2018-03-16T00:03:15.020Z,3.44
2018-03-16T00:03:55.595Z,3.4
2018-03-16T00:04:36.106Z,3.37
2018-03-16T00:05:16.677Z,3.36
2018-03-16T00:05:57.253Z,3.34
2018-03-16T00:06:37.857Z,3.37
2018-03-16T00:07:18.344Z,3.36
2018-03-16T00:07:58.945Z,3.41
2018-03-16T00:08:39.513Z,3.4
2018-03-16T00:09:20.108Z,3.42
2018-03-16T00:10:00.674Z,3.42
2018-03-16T00:10:41.304Z,3.37
2018-03-16T00:11:21.857Z,3.41
2018-03-16T00:12:02.465Z,3.32
2018-03-16T00:12:42.947Z,3.34
2018-03-16T00:13:23.627Z,3.34
2018-03-16T00:14:04.097Z,3.42
2018-03-16T00:14:44.650Z,3.34
2018-03-16T00:15:25.173Z,3.32
2018-03-16T00:16:05.730Z,3.31
2018-03-16T00:16:46.315Z,3.28
2018-03-16T00:17:26.896Z,3.29
2018-03-16T00:18:07.484Z,3.31
2018-03-16T00:18:48.070Z,3.36
2018-03-16T00:19:28.624Z,3.41
2018-03-16T00:20:09.272Z,3.29
2018-03-16T00:20:49.842Z,3.32
2018-03-16T00:21:30.383Z,3.25
2018-03-16T00:22:10.969Z,3.28
2018-03-16T00:22:51.535Z,3.26
2018-03-16T00:23:32.101Z,3.28
2018-03-16T00:24:12.650Z,3.23
2018-03-16T00:24:53.214Z,3.31
2018-03-16T00:25:33.786Z,3.31
2018-03-16T00:26:14.330Z,3.29
2018-03-16T00:26:54.937Z,3.23
2018-03-16T00:27:35.485Z,3.28
2018-03-16T00:28:16.091Z,3.29
2018-03-16T00:28:56.654Z,3.26
2018-03-16T00:29:37.212Z,3.19
2018-03-16T00:30:17.759Z,3.16
2018-03-16T00:30:58.330Z,3.16
2018-03-16T00:31:38.894Z,3.28
2018-03-16T00:32:19.444Z,3.26
2018-03-16T00:33:00.041Z,3.26
2018-03-16T00:33:40.636Z,3.26
2018-03-16T00:34:21.223Z,3.26
2018-03-16T00:35:01.786Z,3.25
2018-03-16T00:35:42.339Z,3.26
2018-03-16T00:36:22.897Z,3.22
2018-03-16T00:37:03.450Z,3.25
2018-03-16T00:37:44.056Z,3.31
2018-03-16T00:38:24.658Z,3.22
2018-03-16T00:39:05.188Z,3.32
2018-03-16T00:39:45.752Z,3.23
2018-03-16T00:40:26.312Z,3.22
2018-03-16T00:41:06.851Z,3.16
2018-03-16T00:41:47.445Z,3.23
2018-03-16T00:42:28.014Z,3.19
2018-03-16T00:43:08.536Z,3.21
2018-03-16T00:43:49.102Z,3.16
2018-03-16T00:44:29.644Z,3.16
2018-03-16T00:45:10.197Z,3.19
2018-03-16T00:45:50.873Z,3.16
2018-03-16T00:46:31.340Z,3.18
2018-03-16T00:47:11.913Z,3.16
2018-03-16T00:47:52.474Z,3.25
2018-03-16T00:48:33.037Z,3.14
2018-03-16T00:49:13.599Z,3.13
2018-03-16T00:49:54.136Z,3.19
2018-03-16T00:50:34.698Z,3.14
2018-03-16T00:51:15.233Z,3.18
2018-03-16T00:51:55.826Z,3.21
2018-03-16T00:52:36.418Z,3.1
2018-03-16T00:53:17.046Z,3.19
2018-03-16T00:53:57.601Z,3.14
2018-03-16T00:54:38.153Z,3.04
2018-03-16T00:55:18.751Z,3.07
2018-03-16T00:55:59.304Z,3.05
2018-03-16T00:56:39.840Z,3.05
2018-03-16T00:57:20.402Z,3.1
2018-03-16T00:58:00.947Z,3.1
2018-03-16T00:58:41.508Z,3.08
2018-03-16T00:59:22.043Z,3.04
2018-03-16T01:00:02.634Z,3.05
2018-03-16T01:00:43.171Z,3.13
2018-03-16T01:01:23.720Z,3.16
2018-03-16T01:02:04.278Z,3.13
2018-03-16T01:02:45.035Z,3.16
2018-03-16T01:03:25.570Z,3.11
2018-03-16T01:04:06.123Z,3.07
2018-03-16T01:04:46.668Z,3.07
2018-03-16T01:05:27.306Z,3.14
2018-03-16T01:06:07.859Z,3.07
2018-03-16T01:06:48.432Z,3.14
2018-03-16T01:07:29.152Z,3.07
2018-03-16T01:08:09.693Z,3.11
2018-03-16T01:08:50.268Z,3.13
2018-03-16T01:09:30.835Z,3.05
2018-03-16T01:10:11.389Z,3.11
2018-03-16T01:10:51.944Z,3.05
2018-03-16T01:11:32.503Z,3.11
2018-03-16T01:12:13.069Z,3.11
2018-03-16T01:12:53.688Z,3.07
2018-03-16T01:13:34.208Z,3.1
2018-03-16T01:14:14.764Z,3.14
2018-03-16T01:14:55.316Z,3.08
2018-03-16T01:15:35.872Z,3.05
2018-03-16T01:16:16.412Z,3.07
2018-03-16T01:16:57.003Z,3.11
2018-03-16T01:17:37.568Z,3.08
2018-03-16T01:18:18.122Z,3.08
2018-03-16T01:18:58.697Z,3.11
2018-03-16T01:19:39.232Z,3.1
2018-03-16T01:20:19.804Z,3.08
2018-03-16T01:21:00.371Z,3.08
2018-03-16T01:21:40.946Z,3.04
2018-03-16T01:22:21.484Z,3.11
2018-03-16T01:23:02.034Z,3.1
2018-03-16T01:23:42.602Z,3.08
2018-03-16T01:24:23.143Z,3.07
2018-03-16T01:25:03.710Z,3.13
2018-03-16T01:25:44.329Z,3.08
2018-03-16T01:26:24.915Z,3.07
2018-03-16T01:27:05.420Z,3.13
2018-03-16T01:27:45.961Z,3.13
2018-03-16T01:28:26.518Z,3.16
2018-03-16T01:29:07.079Z,3.11
2018-03-16T01:29:47.627Z,3.16
2018-03-16T01:30:28.173Z,3.1
2018-03-16T01:31:08.728Z,3.1
2018-03-16T01:31:49.301Z,3.16
2018-03-16T01:32:29.845Z,3.13
2018-03-16T01:33:10.402Z,3.1
2018-03-16T01:33:50.940Z,3.04
2018-03-16T01:34:31.491Z,3.08
2018-03-16T01:35:12.041Z,3.1
2018-03-16T01:35:52.592Z,3.05
2018-03-16T01:36:33.157Z,3.1
2018-03-16T01:37:13.739Z,3.05
2018-03-16T01:37:54.274Z,3.13
2018-03-16T01:38:34.812Z,3.14
2018-03-16T01:39:15.356Z,3.13
2018-03-16T01:39:55.913Z,3.01
2018-03-16T01:40:36.457Z,3.05
2018-03-16T01:41:16.998Z,3.11
2018-03-16T01:41:57.548Z,3.03
2018-03-16T01:42:38.102Z,3.08
2018-03-16T01:43:18.648Z,3.08
2018-03-16T01:43:59.194Z,3.18
2018-03-16T01:44:39.757Z,3.1
2018-03-16T01:45:20.498Z,3.07
2018-03-16T01:46:01.051Z,3.16
2018-03-16T01:46:41.599Z,3.1
2018-03-16T01:47:22.147Z,3.11
2018-03-16T01:48:02.714Z,3.14
2018-03-16T01:48:43.275Z,3.04
2018-03-16T01:49:23.830Z,3.07
2018-03-16T01:50:04.421Z,3.04
2018-03-16T01:50:44.994Z,3.1
2018-03-16T01:51:25.578Z,3.05
2018-03-16T01:52:06.141Z,3.14
2018-03-16T01:52:46.703Z,3.1
2018-03-16T01:53:27.256Z,3.13
2018-03-16T01:54:07.830Z,3.08
2018-03-16T01:54:48.377Z,3.11
2018-03-16T01:55:28.944Z,3.03
2018-03-16T01:56:09.538Z,3.13
2018-03-16T01:56:50.091Z,3.1
2018-03-16T01:57:30.666Z,3.04
2018-03-16T01:58:11.253Z,3.08
2018-03-16T01:58:51.800Z,3.05
2018-03-16T01:59:32.388Z,3.03
2018-03-16T02:00:13.088Z,3.04
2018-03-16T02:00:53.568Z,3.1
2018-03-16T02:01:34.122Z,3.11
2018-03-16T02:02:14.670Z,3
2018-03-16T02:02:55.238Z,3.03
2018-03-16T02:03:35.791Z,3.03
2018-03-16T02:04:16.377Z,3
2018-03-16T02:04:56.934Z,2.97
2018-03-16T02:05:37.508Z,3.01
2018-03-16T02:06:18.075Z,3.03
2018-03-16T02:06:58.637Z,3
2018-03-16T02:07:39.203Z,2.95
2018-03-16T02:08:19.807Z,3
2018-03-16T02:09:00.435Z,2.97
2018-03-16T02:09:40.994Z,2.95
2018-03-16T02:10:21.549Z,3.03
2018-03-16T02:11:02.115Z,3.03
2018-03-16T02:11:42.706Z,3.05
2018-03-16T02:12:23.269Z,3
2018-03-16T02:13:03.814Z,2.97
2018-03-16T02:13:44.372Z,3
2018-03-16T02:14:24.937Z,3
2018-03-16T02:15:05.514Z,3.04
2018-03-16T02:15:46.073Z,2.97
2018-03-16T02:16:26.663Z,2.98
2018-03-16T02:17:07.221Z,3.1
2018-03-16T02:17:47.793Z,3.05
2018-03-16T02:18:28.370Z,3.11
2018-03-16T02:19:08.942Z,3.08
2018-03-16T02:19:49.506Z,3.08
2018-03-16T02:20:30.059Z,3.04
2018-03-16T02:21:10.615Z,3.08
2018-03-16T02:21:51.162Z,3.03
2018-03-16T02:22:31.717Z,3.04
2018-03-16T02:23:12.276Z,2.98
2018-03-16T02:23:52.858Z,3.05
2018-03-16T02:24:33.419Z,3.08
2018-03-16T02:25:14.010Z,2.98
2018-03-16T02:25:54.566Z,3.05
2018-03-16T02:26:35.142Z,3.01
2018-03-16T02:27:15.710Z,2.97
2018-03-16T02:27:56.274Z,2.98
2018-03-16T02:28:36.835Z,2.97
2018-03-16T02:29:17.412Z,2.95
2018-03-16T02:29:57.962Z,2.95
2018-03-16T02:30:38.528Z,3
2018-03-16T02:31:19.086Z,3.01
2018-03-16T02:31:59.662Z,3.04
2018-03-16T02:32:40.197Z,2.97
2018-03-16T02:33:20.770Z,2.98
2018-03-16T02:34:01.317Z,2.97
2018-03-16T02:34:41.879Z,2.97
2018-03-16T02:35:22.431Z,3
2018-03-16T02:36:02.997Z,2.97
2018-03-16T02:36:43.557Z,2.93
2018-03-16T02:37:24.120Z,3.03
2018-03-16T02:38:04.700Z,2.87
2018-03-16T02:38:45.275Z,2.86
2018-03-16T02:39:25.831Z,2.92
2018-03-16T02:40:06.380Z,2.89
2018-03-16T02:40:46.943Z,2.86
2018-03-16T02:41:27.494Z,2.86
2018-03-16T02:42:08.047Z,2.83
2018-03-16T02:42:48.620Z,2.85
2018-03-16T02:43:29.180Z,2.85
2018-03-16T02:44:09.743Z,2.86
2018-03-16T02:44:50.293Z,2.8
2018-03-16T02:45:30.841Z,2.86
2018-03-16T02:46:11.397Z,2.9
2018-03-16T02:46:51.962Z,2.86
2018-03-16T02:47:32.540Z,2.82
2018-03-16T02:48:13.094Z,2.72
2018-03-16T02:48:53.641Z,2.83
2018-03-16T02:49:34.198Z,2.9
2018-03-16T02:50:14.756Z,2.83
2018-03-16T02:50:55.318Z,2.83
2018-03-16T02:51:35.899Z,2.77
2018-03-16T02:52:16.454Z,2.79
2018-03-16T02:52:56.997Z,2.74
2018-03-16T02:53:37.556Z,2.75
2018-03-16T02:54:18.112Z,2.75
2018-03-16T02:54:58.661Z,2.87
2018-03-16T02:55:39.224Z,2.77
2018-03-16T02:56:19.769Z,2.71
2018-03-16T02:57:00.346Z,2.83
2018-03-16T02:57:40.911Z,2.77
2018-03-16T02:58:21.483Z,2.8
2018-03-16T02:59:02.046Z,2.72
2018-03-16T02:59:42.625Z,2.72
2018-03-16T03:00:23.170Z,2.79
2018-03-16T03:01:03.720Z,2.64
2018-03-16T03:01:44.304Z,2.68
2018-03-16T03:02:24.844Z,2.69
2018-03-16T03:03:05.417Z,2.67
2018-03-16T03:03:45.977Z,2.68
2018-03-16T03:04:26.541Z,2.62
2018-03-16T03:05:07.090Z,2.69
2018-03-16T03:05:47.647Z,2.65
2018-03-16T03:06:28.216Z,2.6
2018-03-16T03:07:08.787Z,2.68
2018-03-16T03:07:49.339Z,2.64
2018-03-16T03:08:29.882Z,2.64
2018-03-16T03:09:10.448Z,2.64
2018-03-16T03:09:51.014Z,2.67
2018-03-16T03:10:31.577Z,2.64
2018-03-16T03:11:12.135Z,2.72
2018-03-16T03:11:52.704Z,2.71
2018-03-16T03:12:33.274Z,2.72
2018-03-16T03:13:13.984Z,2.74
2018-03-16T03:13:54.554Z,2.75
2018-03-16T03:14:35.112Z,2.71
2018-03-16T03:15:15.678Z,2.74
2018-03-16T03:15:56.232Z,2.72
2018-03-16T03:16:36.782Z,2.71
2018-03-16T03:17:17.333Z,2.64
2018-03-16T03:17:57.899Z,2.67
2018-03-16T03:18:38.458Z,2.82
2018-03-16T03:19:19.115Z,2.71
2018-03-16T03:19:59.622Z,2.69
2018-03-16T03:20:40.194Z,2.77
2018-03-16T03:21:20.741Z,2.74
2018-03-16T03:22:01.304Z,2.69
2018-03-16T03:22:41.855Z,2.71
2018-03-16T03:23:22.438Z,2.69
2018-03-16T03:24:02.997Z,2.71
2018-03-16T03:24:43.558Z,2.71
2018-03-16T03:25:24.113Z,2.72
2018-03-16T03:26:04.674Z,2.67
2018-03-16T03:26:45.229Z,2.77
2018-03-16T03:27:25.778Z,2.61
2018-03-16T03:28:06.339Z,2.72
2018-03-16T03:28:46.894Z,2.71
2018-03-16T03:29:27.456Z,2.77
2018-03-16T03:30:08.008Z,2.67
2018-03-16T03:30:48.568Z,2.8
2018-03-16T03:31:29.155Z,2.8
2018-03-16T03:32:09.706Z,2.83
2018-03-16T03:32:50.266Z,2.86
2018-03-16T03:33:30.838Z,2.87
2018-03-16T03:34:11.446Z,2.79
2018-03-16T03:34:51.950Z,2.9
2018-03-16T03:35:32.515Z,2.85
2018-03-16T03:36:13.104Z,2.75
2018-03-16T03:36:53.675Z,2.72
2018-03-16T03:37:34.239Z,2.75
2018-03-16T03:38:14.798Z,2.65
2018-03-16T03:38:55.365Z,2.71
2018-03-16T03:39:35.922Z,2.72
2018-03-16T03:40:16.478Z,2.68
2018-03-16T03:40:57.045Z,2.71
2018-03-16T03:41:37.591Z,2.68
2018-03-16T03:42:18.174Z,2.72
2018-03-16T03:42:58.750Z,2.79
2018-03-16T03:43:39.314Z,2.62
2018-03-16T03:44:19.875Z,2.68
2018-03-16T03:45:00.425Z,2.56
2018-03-16T03:45:40.993Z,2.64
2018-03-16T03:46:21.548Z,2.57
2018-03-16T03:47:02.113Z,2.49
2018-03-16T03:47:42.667Z,2.54
2018-03-16T03:48:23.215Z,2.56
2018-03-16T03:49:03.771Z,2.56
2018-03-16T03:49:44.338Z,2.56
2018-03-16T03:50:24.889Z,2.57
2018-03-16T03:51:05.462Z,2.6
2018-03-16T03:51:46.011Z,2.57
2018-03-16T03:52:26.565Z,2.54
2018-03-16T03:53:07.115Z,2.62
2018-03-16T03:53:47.680Z,2.64
2018-03-16T03:54:28.236Z,2.57
2018-03-16T03:55:08.790Z,2.6
2018-03-16T03:55:49.338Z,2.46
2018-03-16T03:56:29.907Z,2.46
2018-03-16T03:57:10.467Z,2.49
2018-03-16T03:57:51.033Z,2.44
2018-03-16T03:58:31.622Z,2.5
2018-03-16T03:59:12.186Z,2.49
2018-03-16T03:59:52.741Z,2.49
2018-03-16T04:00:33.296Z,2.56
2018-03-16T04:01:13.846Z,2.57
2018-03-16T04:01:54.410Z,2.54
2018-03-16T04:02:34.969Z,2.54
2018-03-16T04:03:15.521Z,2.53
2018-03-16T04:03:56.124Z,2.53
2018-03-16T04:04:36.690Z,2.49
2018-03-16T04:05:17.257Z,2.47
2018-03-16T04:05:57.874Z,2.46
2018-03-16T04:06:38.386Z,2.46
2018-03-16T04:07:18.930Z,2.39
2018-03-16T04:07:59.486Z,2.44
2018-03-16T04:08:40.053Z,2.49
2018-03-16T04:09:20.622Z,2.47
2018-03-16T04:10:01.182Z,2.43
2018-03-16T04:10:41.760Z,2.5
2018-03-16T04:11:22.312Z,2.44
2018-03-16T04:12:02.888Z,2.43
2018-03-16T04:12:43.443Z,2.46
2018-03-16T04:13:23.995Z,2.44
2018-03-16T04:14:04.552Z,2.44
2018-03-16T04:14:45.120Z,2.36
2018-03-16T04:15:25.679Z,2.38
2018-03-16T04:16:06.235Z,2.35
2018-03-16T04:16:46.812Z,2.25
2018-03-16T04:17:27.369Z,2.31
2018-03-16T04:18:07.929Z,2.31
2018-03-16T04:18:48.479Z,2.39
2018-03-16T04:19:29.029Z,2.33
2018-03-16T04:20:09.594Z,2.38
2018-03-16T04:20:50.146Z,2.32
2018-03-16T04:21:30.696Z,2.28
2018-03-16T04:22:11.259Z,2.26
2018-03-16T04:22:51.810Z,2.24
2018-03-16T04:23:32.364Z,2.36
2018-03-16T04:24:12.927Z,2.29
2018-03-16T04:24:53.488Z,2.22
2018-03-16T04:25:34.049Z,2.28
2018-03-16T04:26:14.603Z,2.24
2018-03-16T04:26:55.150Z,2.32
2018-03-16T04:27:35.718Z,2.28
2018-03-16T04:28:16.277Z,2.33
2018-03-16T04:28:56.842Z,2.33
2018-03-16T04:29:37.400Z,2.28
2018-03-16T04:30:17.963Z,2.38
2018-03-16T04:30:58.519Z,2.32
2018-03-16T04:31:39.075Z,2.31
2018-03-16T04:32:19.645Z,2.32
2018-03-16T04:33:00.210Z,2.32
2018-03-16T04:33:40.751Z,2.32
2018-03-16T04:34:21.296Z,2.25
2018-03-16T04:35:01.856Z,2.33
2018-03-16T04:35:42.403Z,2.32
2018-03-16T04:36:22.954Z,2.38
2018-03-16T04:37:03.504Z,2.32
2018-03-16T04:37:44.072Z,2.28
2018-03-16T04:38:24.629Z,2.33
2018-03-16T04:39:05.223Z,2.35
2018-03-16T04:39:45.788Z,2.33
2018-03-16T04:40:26.342Z,2.39
2018-03-16T04:41:06.922Z,2.43
2018-03-16T04:41:47.501Z,2.47
2018-03-16T04:42:28.069Z,2.43
2018-03-16T04:43:08.632Z,2.44
2018-03-16T04:43:49.180Z,2.49
2018-03-16T04:44:29.740Z,2.38
2018-03-16T04:45:10.332Z,2.44
2018-03-16T04:45:50.887Z,2.46
2018-03-16T04:46:31.444Z,2.38
2018-03-16T04:47:11.997Z,2.32
2018-03-16T04:47:52.598Z,2.38
2018-03-16T04:48:33.157Z,2.33
2018-03-16T04:49:13.746Z,2.31
2018-03-16T04:49:54.271Z,2.38
2018-03-16T04:50:34.819Z,2.35
2018-03-16T04:51:15.387Z,2.33
2018-03-16T04:51:55.958Z,2.32
2018-03-16T04:52:36.522Z,2.29
2018-03-16T04:53:17.075Z,2.29
2018-03-16T04:53:57.633Z,2.36
2018-03-16T04:54:38.185Z,2.35
2018-03-16T04:55:18.747Z,2.31
2018-03-16T04:55:59.289Z,2.33
2018-03-16T04:56:39.840Z,2.33
2018-03-16T04:57:20.514Z,2.33
2018-03-16T04:58:01.085Z,2.29
2018-03-16T04:58:41.643Z,2.39
2018-03-16T04:59:22.220Z,2.31
2018-03-16T05:00:02.771Z,2.32
2018-03-16T05:00:43.330Z,2.35
2018-03-16T05:01:23.896Z,2.35
2018-03-16T05:02:04.476Z,2.35
2018-03-16T05:02:45.041Z,2.29
2018-03-16T05:03:25.597Z,2.29
2018-03-16T05:04:06.161Z,2.24
2018-03-16T05:04:46.731Z,2.25
2018-03-16T05:05:27.290Z,2.31
2018-03-16T05:06:07.855Z,2.31
2018-03-16T05:06:48.412Z,2.35
2018-03-16T05:07:28.986Z,2.31
2018-03-16T05:08:09.543Z,2.32
2018-03-16T05:08:50.104Z,2.35
2018-03-16T05:09:30.669Z,2.33
2018-03-16T05:10:11.263Z,2.31
2018-03-16T05:10:51.819Z,2.25
2018-03-16T05:11:32.386Z,2.24
2018-03-16T05:12:12.948Z,2.26
2018-03-16T05:12:53.503Z,2.32
2018-03-16T05:13:34.088Z,2.25
2018-03-16T05:14:14.653Z,2.17
2018-03-16T05:14:55.241Z,2.25
2018-03-16T05:15:35.812Z,2.22
2018-03-16T05:16:16.361Z,2.17
2018-03-16T05:16:56.968Z,2.14
2018-03-16T05:17:37.529Z,2.26
2018-03-16T05:18:18.102Z,2.24
2018-03-16T05:18:58.638Z,2.24
2018-03-16T05:19:39.186Z,2.2
2018-03-16T05:20:19.730Z,2.18
2018-03-16T05:21:00.355Z,2.24
2018-03-16T05:21:40.871Z,2.15
2018-03-16T05:22:21.459Z,2.22
2018-03-16T05:23:02.035Z,2.17
2018-03-16T05:23:42.608Z,2.15
2018-03-16T05:24:23.164Z,2.24
2018-03-16T05:25:03.724Z,2.25
2018-03-16T05:25:44.298Z,2.17
2018-03-16T05:26:24.870Z,2.25
2018-03-16T05:27:05.435Z,2.15
2018-03-16T05:27:45.995Z,2.22
2018-03-16T05:28:26.565Z,2.15
2018-03-16T05:29:07.125Z,2.07
2018-03-16T05:29:47.698Z,2.22
2018-03-16T05:30:28.266Z,2.14
2018-03-16T05:31:08.832Z,2.14
2018-03-16T05:31:49.392Z,2.18
2018-03-16T05:32:29.967Z,2.15
2018-03-16T05:33:10.519Z,2.18
2018-03-16T05:33:51.084Z,2.1
2018-03-16T05:34:31.630Z,2.11
2018-03-16T05:35:12.194Z,2.07
2018-03-16T05:35:52.748Z,2.14
2018-03-16T05:36:33.296Z,2.04
2018-03-16T05:37:13.946Z,2.1
2018-03-16T05:37:54.445Z,2.08
2018-03-16T05:38:35.015Z,2.11
2018-03-16T05:39:15.566Z,2.18
2018-03-16T05:39:56.124Z,2.14
2018-03-16T05:40:36.678Z,2.15
2018-03-16T05:41:17.237Z,2.1
2018-03-16T05:41:57.796Z,2.11
2018-03-16T05:42:38.342Z,2.22
2018-03-16T05:43:18.892Z,2.11
2018-03-16T05:43:59.444Z,2.22
2018-03-16T05:44:40.002Z,2.2
2018-03-16T05:45:20.568Z,2.15
2018-03-16T05:46:01.146Z,2.11
2018-03-16T05:46:41.742Z,2.11
2018-03-16T05:47:22.297Z,2.08
2018-03-16T05:48:02.862Z,2.13
2018-03-16T05:48:43.412Z,2.13
2018-03-16T05:49:23.968Z,2.15
2018-03-16T05:50:04.565Z,2.14
2018-03-16T05:50:45.157Z,2.07
2018-03-16T05:51:25.710Z,2.07
2018-03-16T05:52:06.280Z,2.06
2018-03-16T05:52:47.257Z,2.13
2018-03-16T05:53:27.660Z,2.14
2018-03-16T05:54:08.288Z,2.11
2018-03-16T05:54:49.091Z,2.2
2018-03-16T05:55:29.670Z,2.14
2018-03-16T05:56:10.240Z,2.08
2018-03-16T05:56:50.783Z,2.1
2018-03-16T05:57:31.348Z,2.07
2018-03-16T05:58:11.939Z,2.11
2018-03-16T05:58:52.703Z,2.08
2018-03-16T05:59:33.301Z,2.1
2018-03-16T06:00:13.912Z,2.14
2018-03-16T06:00:54.666Z,2.2
2018-03-16T06:01:35.266Z,2.11
2018-03-16T06:02:15.814Z,2.14
2018-03-16T06:02:56.376Z,2.11
2018-03-16T06:03:37.049Z,2.2
2018-03-16T06:04:17.624Z,2.14
2018-03-16T06:04:58.188Z,2.1
2018-03-16T06:05:38.742Z,2.06
2018-03-16T06:06:19.297Z,2.07
2018-03-16T06:06:59.853Z,2.08
2018-03-16T06:07:40.439Z,2.14
2018-03-16T06:08:21.012Z,2.06
2018-03-16T06:09:01.805Z,2.07
2018-03-16T06:09:42.388Z,2.08
2018-03-16T06:10:22.942Z,2.06
2018-03-16T06:11:03.616Z,2.04
2018-03-16T06:12:04.223Z,2.04
2018-03-16T06:12:44.773Z,2.04
2018-03-16T06:13:25.341Z,2.02
2018-03-16T06:14:05.892Z,2.04
2018-03-16T06:14:46.476Z,1.97
2018-03-16T06:15:27.255Z,2.06
2018-03-16T06:16:08.876Z,2.07
2018-03-16T06:16:49.446Z,1.99
2018-03-16T06:17:30.036Z,1.97
2018-03-16T06:18:11.347Z,2.02
2018-03-16T06:18:51.181Z,1.95
2018-03-16T06:19:31.768Z,2.08
2018-03-16T06:20:12.327Z,2.1
2018-03-16T06:20:52.888Z,2.26
2018-03-16T06:21:33.438Z,2.44
2018-03-16T06:22:13.993Z,2.75
2018-03-16T06:22:54.544Z,2.85
2018-03-16T06:23:35.099Z,2.86
2018-03-16T06:24:15.653Z,3.03
2018-03-16T06:24:56.220Z,3.08
2018-03-16T06:25:36.796Z,3.14
2018-03-16T06:26:17.350Z,3.1
2018-03-16T06:26:57.963Z,3.08
2018-03-16T06:27:38.475Z,3.08
2018-03-16T06:28:19.046Z,3.07
2018-03-16T06:28:59.647Z,3.08
2018-03-16T06:29:40.251Z,3.1
2018-03-16T06:30:20.801Z,3.14
2018-03-16T06:31:01.387Z,3.28
2018-03-16T06:31:41.945Z,3.31
2018-03-16T06:32:22.644Z,3.19
2018-03-16T06:33:03.151Z,3.11
2018-03-16T06:33:43.712Z,3.1
2018-03-16T06:34:24.405Z,3.08
2018-03-16T06:35:04.973Z,3.1
2018-03-16T06:35:45.521Z,3.11
2018-03-16T06:36:26.088Z,3.1
2018-03-16T06:37:06.678Z,3.05
2018-03-16T06:37:47.282Z,2.93
2018-03-16T06:38:27.802Z,2.92
2018-03-16T06:39:08.371Z,2.79
2018-03-16T06:39:48.932Z,2.69
2018-03-16T06:40:29.497Z,2.67
2018-03-16T06:41:10.167Z,2.62
2018-03-16T06:41:50.722Z,2.54
2018-03-16T06:42:31.293Z,2.57
2018-03-16T06:43:11.839Z,2.43
2018-03-16T06:43:52.406Z,2.49
2018-03-16T06:44:32.995Z,2.43
2018-03-16T06:45:13.668Z,2.46
2018-03-16T06:45:54.287Z,2.43
2018-03-16T06:46:35.036Z,2.32
2018-03-16T06:47:15.637Z,2.31
2018-03-16T06:47:56.202Z,2.32
2018-03-16T06:48:37.545Z,2.2
2018-03-16T06:49:18.200Z,2.25
2018-03-16T06:49:58.832Z,2.15
2018-03-16T06:50:39.617Z,2.22
2018-03-16T06:51:20.285Z,2.28
2018-03-16T06:52:00.972Z,2.17
2018-03-16T06:52:42.452Z,2.2
2018-03-16T06:53:23.139Z,2.11
2018-03-16T06:54:03.817Z,2.2
2018-03-16T06:54:44.430Z,2.15
2018-03-16T06:55:25.031Z,2.1
2018-03-16T06:56:05.616Z,2.1
2018-03-16T06:56:46.172Z,2.13
2018-03-16T06:57:26.757Z,2.15
2018-03-16T06:58:07.468Z,2.07
2018-03-16T06:58:48.132Z,2.1
2018-03-16T06:59:28.745Z,2.08
2018-03-16T07:00:09.367Z,2.14
2018-03-16T07:00:50.206Z,2.15
2018-03-16T07:01:30.908Z,2.22
2018-03-16T07:02:11.505Z,2.13
2018-03-16T07:02:52.132Z,2.13
2018-03-16T07:03:32.946Z,2.08
2018-03-16T07:04:13.518Z,2
2018-03-16T07:04:54.183Z,2.08
2018-03-16T07:05:34.803Z,2.1
2018-03-16T07:06:15.371Z,1.99
2018-03-16T07:06:55.948Z,1.95
2018-03-16T07:07:36.531Z,1.99
2018-03-16T07:08:17.180Z,2.08
2018-03-16T07:08:57.752Z,2.06
2018-03-16T07:09:38.314Z,2.06
2018-03-16T07:10:18.883Z,2
2018-03-16T07:10:59.473Z,2.04
2018-03-16T07:11:40.037Z,2
2018-03-16T07:12:20.586Z,1.94
2018-03-16T07:13:01.150Z,1.89
2018-03-16T07:13:41.728Z,2
2018-03-16T07:14:22.296Z,1.94
2018-03-16T07:15:02.882Z,1.92
2018-03-16T07:15:43.428Z,1.97
2018-03-16T07:16:23.999Z,1.94
2018-03-16T07:17:04.546Z,1.85
2018-03-16T07:17:45.100Z,1.91
2018-03-16T07:18:25.645Z,1.91
2018-03-16T07:19:06.203Z,1.88
2018-03-16T07:19:46.772Z,1.84
2018-03-16T07:20:27.326Z,1.84
2018-03-16T07:21:07.900Z,1.76
2018-03-16T07:21:48.493Z,1.76
2018-03-16T07:22:29.057Z,1.81
2018-03-16T07:23:09.665Z,1.89
2018-03-16T07:23:50.206Z,1.76
2018-03-16T07:24:30.793Z,1.89
2018-03-16T07:25:11.363Z,1.78
2018-03-16T07:25:51.933Z,1.84
2018-03-16T07:26:32.547Z,1.94
2018-03-16T07:27:13.109Z,1.91
2018-03-16T07:27:53.659Z,1.94
2018-03-16T07:28:34.215Z,1.91
2018-03-16T07:29:14.799Z,1.95
2018-03-16T07:32:35.426Z,1.99
2018-03-16T07:33:15.984Z,1.92
2018-03-16T07:33:56.573Z,1.94
2018-03-16T07:34:37.138Z,1.95
2018-03-16T07:35:17.673Z,1.94
2018-03-16T07:35:58.226Z,1.95
2018-03-16T07:36:38.839Z,1.92
2018-03-16T07:37:19.511Z,1.99
2018-03-16T07:38:00.773Z,1.95
2018-03-16T07:38:41.372Z,1.91
2018-03-16T07:39:21.965Z,1.97
2018-03-16T07:40:02.504Z,1.95
2018-03-16T07:40:43.044Z,1.95
2018-03-16T07:41:23.596Z,1.95
2018-03-16T07:42:04.126Z,1.92
2018-03-16T07:42:44.678Z,1.95
2018-03-16T07:43:25.240Z,1.92
2018-03-16T07:44:05.840Z,1.97
2018-03-16T07:44:46.392Z,1.95
2018-03-16T07:45:27.024Z,1.94
2018-03-16T07:46:07.554Z,2.06
2018-03-16T07:46:48.113Z,2.02
2018-03-16T07:47:28.692Z,1.94
2018-03-16T07:48:09.255Z,1.92
2018-03-16T07:48:49.833Z,1.94
2018-03-16T07:49:30.389Z,1.97
2018-03-16T07:50:10.962Z,1.89
2018-03-16T07:50:51.504Z,1.94
2018-03-16T07:51:32.047Z,1.78
2018-03-16T07:52:12.596Z,1.77
2018-03-16T07:52:53.153Z,1.76
2018-03-16T07:53:33.712Z,1.78
2018-03-16T07:54:14.254Z,1.78
2018-03-16T07:54:54.803Z,1.78
2018-03-16T07:55:35.414Z,1.77
2018-03-16T07:56:15.975Z,1.74
2018-03-16T07:56:56.525Z,1.74
2018-03-16T07:57:37.070Z,1.76
2018-03-16T07:58:17.681Z,1.74
2018-03-16T07:58:58.233Z,1.78
2018-03-16T07:59:38.783Z,1.73
2018-03-16T08:00:19.350Z,1.77
2018-03-16T08:00:59.974Z,1.78
2018-03-16T08:01:41.177Z,1.8
2018-03-16T08:02:21.733Z,1.81
2018-03-16T08:03:02.269Z,1.89
2018-03-16T08:03:42.830Z,1.87
2018-03-16T08:04:23.395Z,1.84
2018-03-16T08:05:03.943Z,1.88
2018-03-16T08:05:44.495Z,1.81
2018-03-16T08:06:25.085Z,1.91
2018-03-16T08:07:05.564Z,1.95
2018-03-16T08:07:46.126Z,1.99
2018-03-16T08:08:26.664Z,1.95
2018-03-16T08:09:07.240Z,1.94
2018-03-16T08:09:47.782Z,1.91
2018-03-16T08:10:28.326Z,2.06
2018-03-16T08:11:09.714Z,2.02
2018-03-16T08:11:50.431Z,2
2018-03-16T08:12:30.947Z,2
2018-03-16T08:13:11.543Z,2
2018-03-16T08:13:52.108Z,2.02
2018-03-16T08:14:32.661Z,1.92
2018-03-16T08:15:13.281Z,2
2018-03-16T08:15:53.754Z,2.06
2018-03-16T08:16:34.422Z,2.02
2018-03-16T08:17:14.985Z,2
2018-03-16T08:17:55.557Z,2.07
2018-03-16T08:18:36.083Z,2.07
2018-03-16T08:19:16.607Z,2.1
2018-03-16T08:19:57.188Z,1.99
2018-03-16T08:20:37.752Z,2.07
2018-03-16T08:21:18.318Z,2.04
2018-03-16T08:21:58.917Z,1.99
2018-03-16T08:22:39.483Z,2
2018-03-16T08:23:20.027Z,1.94
2018-03-16T08:24:00.579Z,1.97
2018-03-16T08:24:41.114Z,1.92
2018-03-16T08:25:21.744Z,1.94
2018-03-16T08:26:02.411Z,1.99
2018-03-16T08:26:42.974Z,1.95
2018-03-16T08:27:23.547Z,1.84
2018-03-16T08:28:04.479Z,1.77
2018-03-16T08:28:44.954Z,1.78
2018-03-16T08:29:25.542Z,1.8
2018-03-16T08:30:06.087Z,1.74
2018-03-16T08:30:46.653Z,1.77
2018-03-16T08:31:27.278Z,1.84
2018-03-16T08:32:07.861Z,1.8
2018-03-16T08:32:48.410Z,1.76
2018-03-16T08:33:29.005Z,1.85
2018-03-16T08:34:09.550Z,1.76
2018-03-16T08:34:50.135Z,1.77
2018-03-16T08:35:30.686Z,1.77
2018-03-16T08:36:11.246Z,1.91
2018-03-16T08:36:51.865Z,1.85
2018-03-16T08:37:32.413Z,1.88
2018-03-16T08:38:12.961Z,1.91
2018-03-16T08:38:53.527Z,1.91
2018-03-16T08:39:34.096Z,1.81
2018-03-16T08:40:14.631Z,1.78
2018-03-16T08:40:55.206Z,1.77
2018-03-16T08:41:35.767Z,1.71
2018-03-16T08:42:16.340Z,1.76
2018-03-16T08:42:56.892Z,1.76
2018-03-16T08:43:37.462Z,1.77
2018-03-16T08:44:18.021Z,1.68
2018-03-16T08:44:58.564Z,1.73
2018-03-16T08:45:39.119Z,1.71
2018-03-16T08:46:19.669Z,1.76
2018-03-16T08:47:00.229Z,1.71
2018-03-16T08:47:40.765Z,1.74
2018-03-16T08:48:21.320Z,1.78
2018-03-16T08:49:01.885Z,1.7
2018-03-16T08:49:42.442Z,1.8
2018-03-16T08:50:23.014Z,1.77
2018-03-16T08:51:03.572Z,1.84
2018-03-16T08:51:44.088Z,1.78
2018-03-16T08:52:24.674Z,1.81
2018-03-16T08:53:05.270Z,1.81
2018-03-16T08:53:45.811Z,1.81
2018-03-16T08:54:26.357Z,1.94
2018-03-16T08:55:06.924Z,1.88
2018-03-16T08:55:47.480Z,1.92
2018-03-16T08:56:28.043Z,1.94
2018-03-16T08:57:08.584Z,1.91
2018-03-16T08:57:49.128Z,1.99
2018-03-16T08:58:29.665Z,1.91
2018-03-16T08:59:10.224Z,1.94
2018-03-16T08:59:50.779Z,1.99
2018-03-16T09:00:31.337Z,1.91
2018-03-16T09:01:11.889Z,1.97
2018-03-16T09:01:52.448Z,1.84
2018-03-16T09:02:32.998Z,1.85
2018-03-16T09:03:13.570Z,1.85
2018-03-16T09:03:54.096Z,1.95
2018-03-16T09:04:34.620Z,1.92
2018-03-16T09:05:15.203Z,1.94
2018-03-16T09:05:55.734Z,1.94